Time;durP1;ratioP1;P1;durP2;ratioP2;P2;SDS_P1;SDS_P2;PMS_P1;PMS_P2;Temp;Humidity;BMP_temperature;BMP_pressure;BME280_temperature;BME280_humidity;BME280_pressure;Samples;Min_cycle;Max_cycle;Signal;HPM_P1;HPM_P2
2022/05/14 00:00:28;;;;;;;13.82;7.65;;;17.80;99.90;;;;;;4795589;30;20035;-88
2022/05/14 00:02:58;;;;;;;15.45;7.45;;;17.90;99.90;;;;;;4794865;30;20024;-87
2022/05/14 00:05:26;;;;;;;12.85;6.50;;;18.00;99.90;;;;;;4796636;29;20122;-88
2022/05/14 00:07:53;;;;;;;12.02;6.32;;;18.20;99.90;;;;;;4797309;30;20497;-87
2022/05/14 00:10:23;;;;;;;11.77;6.38;;;18.20;99.90;;;;;;4798137;30;20107;-88
2022/05/14 00:13:06;;;;;;;12.20;6.53;;;18.20;99.90;;;;;;4797417;30;20047;-88
2022/05/14 00:15:39;;;;;;;12.45;6.00;;;18.20;99.90;;;;;;4798542;30;20047;-88
2022/05/14 00:18:08;;;;;;;10.63;5.83;;;18.20;99.90;;;;;;4798974;30;20035;-88
2022/05/14 00:20:36;;;;;;;11.65;6.32;;;18.10;99.90;;;;;;4798659;30;20688;-88
2022/05/14 00:23:05;;;;;;;10.57;6.40;;;18.00;99.90;;;;;;4799394;30;20033;-87
2022/05/14 00:25:33;;;;;;;9.60;6.18;;;18.00;99.90;;;;;;4797814;30;20054;-88
2022/05/14 00:28:00;;;;;;;10.13;6.78;;;18.00;99.90;;;;;;4797244;30;20065;-87
2022/05/14 00:30:29;;;;;;;12.60;6.40;;;18.00;99.90;;;;;;4780448;30;20054;-88
2022/05/14 00:32:56;;;;;;;16.13;6.95;;;18.00;99.90;;;;;;4797381;30;20035;-88
2022/05/14 00:35:24;;;;;;;9.68;6.40;;;18.10;99.90;;;;;;4796666;30;20100;-87
2022/05/14 00:37:51;;;;;;;14.63;6.30;;;18.00;99.90;;;;;;4796833;30;20038;-87
2022/05/14 00:40:35;;;;;;;11.85;6.00;;;18.00;99.90;;;;;;4797678;30;20111;-88
2022/05/14 00:43:02;;;;;;;12.07;6.03;;;18.10;99.90;;;;;;4797398;30;20043;-88
2022/05/14 00:45:35;;;;;;;13.40;6.65;;;18.10;99.90;;;;;;4796685;30;20063;-87
2022/05/14 00:48:03;;;;;;;14.10;6.22;;;18.10;99.90;;;;;;4795460;30;20097;-88
2022/05/14 00:50:49;;;;;;;9.27;6.15;;;18.10;99.90;;;;;;4766943;30;20042;-87
2022/05/14 00:53:27;;;;;;;9.88;6.43;;;18.00;99.90;;;;;;4778429;30;20443;-87
2022/05/14 00:55:57;;;;;;;11.20;6.20;;;18.00;99.90;;;;;;4794929;30;20080;-87
2022/05/14 00:58:56;;;;;;;13.43;6.95;;;18.00;99.90;;;;;;4780666;30;20036;-88
2022/05/14 01:01:23;;;;;;;14.57;7.13;;;17.90;99.90;;;;;;4695342;30;20111;-88
2022/05/14 01:03:53;;;;;;;11.93;6.70;;;18.00;99.90;;;;;;4709499;30;20048;-88
2022/05/14 01:06:26;;;;;;;11.15;6.82;;;17.90;99.90;;;;;;4709247;30;20068;-88
2022/05/14 01:08:58;;;;;;;14.50;7.50;;;17.90;99.90;;;;;;4709630;30;20504;-88
2022/05/14 01:11:29;;;;;;;14.90;7.25;;;17.80;99.90;;;;;;4711933;30;20441;-88
2022/05/14 01:13:56;;;;;;;12.02;6.88;;;17.90;99.90;;;;;;4714453;30;20041;-87
2022/05/14 01:16:24;;;;;;;12.98;7.45;;;17.90;99.90;;;;;;4714079;30;20033;-88
2022/05/14 01:18:59;;;;;;;14.45;7.20;;;17.90;99.90;;;;;;4713102;30;20045;-89
2022/05/14 01:21:51;;;;;;;16.27;7.72;;;17.90;99.90;;;;;;4709294;30;20041;-89
2022/05/14 01:27:26;;;;;;;15.70;7.90;;;18.00;99.90;;;;;;4726606;30;20033;-87
2022/05/14 01:29:54;;;;;;;14.70;7.40;;;17.90;99.90;;;;;;4710083;30;20061;-88
2022/05/14 01:32:24;;;;;;;13.55;7.25;;;17.90;99.90;;;;;;4709534;30;20052;-87
2022/05/14 01:34:51;;;;;;;10.43;7.47;;;17.90;99.90;;;;;;4708455;30;20072;-88
2022/05/14 01:37:20;;;;;;;11.35;7.40;;;17.90;99.90;;;;;;4712407;30;20506;-89
2022/05/14 01:39:48;;;;;;;14.48;7.80;;;17.80;99.90;;;;;;4778339;30;20055;-87
2022/05/14 01:42:21;;;;;;;18.38;8.15;;;17.80;99.90;;;;;;4766349;30;20039;-86
2022/05/14 01:44:49;;;;;;;16.53;7.83;;;17.80;99.90;;;;;;4796466;30;20035;-87
2022/05/14 01:47:16;;;;;;;14.35;8.10;;;17.70;99.90;;;;;;4795277;30;20067;-87
2022/05/14 01:49:43;;;;;;;12.30;8.20;;;17.70;99.90;;;;;;4793800;30;20200;-88
2022/05/14 01:52:10;;;;;;;15.30;8.07;;;17.70;99.90;;;;;;4794824;30;20042;-88
2022/05/14 01:54:36;;;;;;;14.13;8.20;;;17.70;99.90;;;;;;4794594;30;20047;-87
2022/05/14 01:57:04;;;;;;;15.23;8.10;;;17.70;99.90;;;;;;4793931;30;20046;-88
2022/05/14 01:59:32;;;;;;;11.82;8.43;;;17.70;99.90;;;;;;4794010;30;20024;-87
2022/05/14 02:02:00;;;;;;;14.52;8.18;;;17.70;99.90;;;;;;4793814;30;20070;-89
2022/05/14 02:04:28;;;;;;;14.32;9.02;;;17.70;99.90;;;;;;4764702;30;20031;-88
2022/05/14 02:06:56;;;;;;;11.00;7.80;;;17.60;99.90;;;;;;4793681;30;20035;-87
2022/05/14 02:09:23;;;;;;;14.55;7.63;;;17.40;99.90;;;;;;4794646;30;20525;-89
2022/05/14 02:11:56;;;;;;;13.05;8.05;;;17.30;99.90;;;;;;4792578;30;20134;-88
2022/05/14 02:14:34;;;;;;;13.88;8.40;;;17.20;99.90;;;;;;4793042;30;20039;-88
2022/05/14 02:17:01;;;;;;;15.40;8.55;;;17.20;99.90;;;;;;4796762;30;20172;-89
2022/05/14 02:19:33;;;;;;;16.85;8.73;;;17.10;99.90;;;;;;4797155;30;20035;-88
2022/05/14 02:22:00;;;;;;;14.70;8.55;;;17.20;99.90;;;;;;4799137;30;20110;-89
2022/05/14 02:24:27;;;;;;;15.95;9.23;;;17.40;99.90;;;;;;4798921;30;20036;-88
2022/05/14 02:26:54;;;;;;;16.90;9.32;;;17.40;99.90;;;;;;4798524;30;20043;-89
2022/05/14 02:29:25;;;;;;;13.52;8.48;;;17.50;99.90;;;;;;4798340;30;20028;-88
2022/05/14 02:31:53;;;;;;;13.85;8.40;;;17.30;99.90;;;;;;4784721;30;20096;-88
2022/05/14 02:34:19;;;;;;;13.32;8.18;;;17.20;99.90;;;;;;4799186;30;20047;-88
2022/05/14 02:36:47;;;;;;;13.50;8.77;;;17.00;99.90;;;;;;4798216;30;20066;-89
2022/05/14 02:39:14;;;;;;;15.35;9.20;;;17.10;99.90;;;;;;4778493;30;20067;-89
2022/05/14 02:41:40;;;;;;;12.38;8.20;;;17.10;99.90;;;;;;4766054;30;20059;-89
2022/05/14 02:44:07;;;;;;;15.75;9.27;;;17.00;99.90;;;;;;4765236;30;20032;-88
2022/05/14 02:46:38;;;;;;;11.18;8.73;;;17.10;99.90;;;;;;4779882;30;20032;-88
2022/05/14 02:49:05;;;;;;;15.10;8.95;;;17.20;99.90;;;;;;4765464;30;20076;-88
2022/05/14 02:51:32;;;;;;;18.25;9.82;;;17.10;99.90;;;;;;4764851;30;20115;-88
2022/05/14 02:53:58;;;;;;;12.95;8.82;;;17.10;99.90;;;;;;4764279;30;20119;-89
2022/05/14 02:56:26;;;;;;;15.00;8.95;;;17.00;99.90;;;;;;4763684;30;20035;-89
2022/05/14 02:59:09;;;;;;;13.05;9.10;;;17.00;99.90;;;;;;4765211;30;20119;-88
2022/05/14 03:01:47;;;;;;;15.50;8.75;;;17.00;99.90;;;;;;4764583;30;20039;-87
2022/05/14 03:04:24;;;;;;;16.55;9.40;;;17.00;99.90;;;;;;4747242;30;20039;-90
2022/05/14 03:06:52;;;;;;;17.90;10.15;;;17.10;99.90;;;;;;4765436;30;20116;-90
2022/05/14 03:09:22;;;;;;;14.43;9.75;;;17.20;99.90;;;;;;4761635;30;20035;-89
2022/05/14 03:11:52;;;;;;;15.45;9.25;;;17.20;99.90;;;;;;4747143;30;20035;-89
2022/05/14 03:14:20;;;;;;;14.23;9.00;;;17.10;99.90;;;;;;4748033;30;20084;-88
2022/05/14 03:16:47;;;;;;;13.88;8.88;;;17.00;99.90;;;;;;4746941;30;20032;-88
2022/05/14 03:19:14;;;;;;;16.55;9.80;;;17.00;99.90;;;;;;4763496;30;20036;-88
2022/05/14 03:21:42;;;;;;;16.20;10.52;;;16.90;99.90;;;;;;4759845;30;20059;-88
2022/05/14 03:24:10;;;;;;;17.00;9.52;;;17.00;99.90;;;;;;4760326;30;20170;-88
2022/05/14 03:26:42;;;;;;;16.17;9.48;;;17.10;99.90;;;;;;4757599;30;20050;-89
2022/05/14 03:29:10;;;;;;;18.30;10.13;;;17.00;99.90;;;;;;4740673;30;20075;-88
2022/05/14 03:31:38;;;;;;;19.75;10.40;;;16.80;99.90;;;;;;4754516;30;20044;-88
2022/05/14 03:34:06;;;;;;;14.73;9.88;;;16.70;99.90;;;;;;4759179;30;20538;-89
2022/05/14 03:36:33;;;;;;;13.77;9.75;;;16.90;99.90;;;;;;4755707;30;20122;-90
2022/05/14 03:39:00;;;;;;;18.75;10.68;;;16.90;99.90;;;;;;4757301;30;20081;-88
2022/05/14 03:41:28;;;;;;;16.95;10.85;;;16.90;99.90;;;;;;4759476;30;20039;-88
2022/05/14 03:43:57;;;;;;;24.48;11.82;;;16.80;99.90;;;;;;4758852;30;20494;-86
2022/05/14 03:46:24;;;;;;;16.45;11.43;;;16.90;99.90;;;;;;4759695;30;20053;-86
2022/05/14 03:48:51;;;;;;;19.50;10.82;;;17.00;99.90;;;;;;4759640;30;20035;-88
2022/05/14 03:51:19;;;;;;;18.70;11.55;;;17.10;99.90;;;;;;4758315;30;20050;-88
2022/05/14 03:53:47;;;;;;;21.92;11.25;;;17.10;99.90;;;;;;4760510;30;20055;-88
2022/05/14 03:56:15;;;;;;;16.75;10.95;;;17.20;99.90;;;;;;4764183;30;20036;-88
2022/05/14 03:58:42;;;;;;;21.95;11.65;;;17.20;99.90;;;;;;4769919;30;20036;-88
2022/05/14 04:01:10;;;;;;;17.75;11.68;;;17.20;99.90;;;;;;4769997;30;20130;-88
2022/05/14 04:03:46;;;;;;;19.58;11.38;;;17.20;99.90;;;;;;4770580;30;20035;-89
2022/05/14 04:06:14;;;;;;;21.50;11.68;;;17.20;99.90;;;;;;4783709;30;20043;-89
2022/05/14 04:08:40;;;;;;;16.60;11.27;;;17.20;99.90;;;;;;4765657;30;20039;-89
2022/05/14 04:11:07;;;;;;;21.13;11.60;;;17.20;99.90;;;;;;4767499;30;20111;-89
2022/05/14 04:13:35;;;;;;;22.40;12.30;;;17.20;99.90;;;;;;4754357;30;20077;-88
2022/05/14 04:16:03;;;;;;;20.58;12.38;;;17.40;99.90;;;;;;4754516;30;20051;-88
2022/05/14 04:18:30;;;;;;;18.60;12.05;;;17.40;99.90;;;;;;4749511;30;20090;-88
2022/05/14 04:21:00;;;;;;;17.05;11.15;;;17.60;99.90;;;;;;4752783;30;20040;-89
2022/05/14 04:23:30;;;;;;;23.35;11.38;;;17.70;99.90;;;;;;4746340;30;20027;-88
2022/05/14 04:25:59;;;;;;;15.48;10.00;;;17.70;99.90;;;;;;4755530;30;20040;-89
2022/05/14 04:28:27;;;;;;;17.00;10.43;;;17.80;99.90;;;;;;4754630;30;20036;-88
2022/05/14 04:30:55;;;;;;;14.73;10.02;;;17.80;99.90;;;;;;4779719;30;20046;-88
2022/05/14 04:33:27;;;;;;;19.42;10.55;;;18.00;99.90;;;;;;4752764;30;20047;-89
2022/05/14 04:35:58;;;;;;;15.18;9.02;;;18.40;99.90;;;;;;4768013;30;20466;-89
2022/05/14 04:38:26;;;;;;;16.45;8.40;;;18.80;99.90;;;;;;4754335;30;20034;-86
2022/05/14 04:40:53;;;;;;;15.88;8.32;;;19.40;99.90;;;;;;4771046;30;20059;-89
2022/05/14 04:43:20;;;;;;;14.60;8.10;;;20.30;99.90;;;;;;4769468;30;20039;-90
2022/05/14 04:45:47;;;;;;;14.88;8.43;;;21.00;99.90;;;;;;4779468;30;20051;-90
2022/05/14 04:48:17;;;;;;;12.82;7.88;;;21.50;99.90;;;;;;4783630;30;20020;-91
2022/05/14 04:50:46;;;;;;;14.45;8.45;;;21.70;99.90;;;;;;4791340;30;20051;-90
2022/05/14 04:53:14;;;;;;;16.38;9.20;;;21.80;99.90;;;;;;4787804;30;20034;-90
2022/05/14 04:55:42;;;;;;;14.57;7.90;;;21.60;99.90;;;;;;4792025;30;20032;-89
2022/05/14 04:58:11;;;;;;;13.20;8.00;;;21.60;99.90;;;;;;4777628;30;20042;-87
2022/05/14 05:00:41;;;;;;;11.52;8.25;;;21.70;99.90;;;;;;4776616;30;20034;-89
2022/05/14 05:03:19;;;;;;;12.65;7.28;;;21.40;99.90;;;;;;4758346;30;20162;-90
2022/05/14 05:05:54;;;;;;;9.73;7.70;;;21.50;99.90;;;;;;4741898;30;20109;-91
2022/05/14 05:08:24;;;;;;;10.48;7.88;;;21.50;99.90;;;;;;4742072;30;20127;-91
2022/05/14 05:10:51;;;;;;;19.92;8.35;;;21.70;99.90;;;;;;4741860;30;20049;-90
2022/05/14 05:13:26;;;;;;;13.30;7.30;;;22.10;99.90;;;;;;4741705;30;20097;-90
2022/05/14 05:15:53;;;;;;;10.43;7.30;;;22.30;99.90;;;;;;4741595;30;20044;-91
2022/05/14 05:18:21;;;;;;;11.02;7.85;;;22.50;99.90;;;;;;4741726;30;20182;-92
2022/05/14 05:20:52;;;;;;;10.43;7.10;;;22.90;99.90;;;;;;4741452;30;20044;-92
2022/05/14 05:23:22;;;;;;;14.27;7.50;;;23.40;99.90;;;;;;4741461;30;20043;-91
2022/05/14 05:25:50;;;;;;;12.40;7.13;;;24.00;99.90;;;;;;4742165;30;20040;-91
2022/05/14 05:28:20;;;;;;;9.43;7.80;;;24.30;99.90;;;;;;4742532;30;20073;-89
2022/05/14 05:30:47;;;;;;;9.77;7.85;;;23.70;99.90;;;;;;4741914;30;20034;-90
2022/05/14 05:33:19;;;;;;;8.38;7.35;;;23.80;99.90;;;;;;4744326;30;20043;-88
2022/05/14 05:35:45;;;;;;;9.02;7.70;;;23.70;99.90;;;;;;4759977;30;20050;-89
2022/05/14 05:38:18;;;;;;;11.95;8.35;;;24.00;99.90;;;;;;4760129;30;20481;-89
2022/05/14 05:40:45;;;;;;;8.85;7.75;;;24.30;99.90;;;;;;4756904;30;20056;-89
2022/05/14 05:43:15;;;;;;;11.95;7.78;;;24.20;99.90;;;;;;4758318;30;20254;-90
2022/05/14 05:45:47;;;;;;;14.85;8.35;;;24.80;99.90;;;;;;4758351;30;20375;-93
2022/05/14 05:48:14;;;;;;;12.85;8.70;;;23.80;99.90;;;;;;4758495;30;20040;-91
2022/05/14 05:50:43;;;;;;;14.00;8.02;;;23.60;99.90;;;;;;4756926;30;20036;-90
2022/05/14 05:53:10;;;;;;;11.95;8.20;;;23.50;99.90;;;;;;4756625;30;20065;-90
2022/05/14 05:58:21;;;;;;;11.90;8.50;;;24.00;99.90;;;;;;4771359;30;20036;-92
2022/05/14 06:00:48;;;;;;;10.50;8.63;;;23.70;99.90;;;;;;4756876;30;20040;-90
2022/05/14 06:03:14;;;;;;;14.82;8.20;;;23.60;99.90;;;;;;4752030;30;20028;-92
2022/05/14 06:05:41;;;;;;;10.50;7.63;;;24.50;99.90;;;;;;4747494;30;20032;-91
2022/05/14 06:08:15;;;;;;;13.75;8.02;;;24.40;99.90;;;;;;4747887;30;20031;-88
2022/05/14 06:10:42;;;;;;;15.32;8.68;;;24.70;99.90;;;;;;4741463;30;20036;-91
2022/05/14 06:13:10;;;;;;;12.65;8.32;;;24.00;99.90;;;;;;4727348;30;20028;-90
2022/05/14 06:15:39;;;;;;;11.63;8.88;;;24.10;99.90;;;;;;4759185;30;20048;-92
2022/05/14 06:18:09;;;;;;;11.45;8.63;;;23.70;99.90;;;;;;4732171;30;20024;-92
2022/05/14 06:20:55;;;;;;;15.85;9.38;;;24.10;99.90;;;;;;4753280;30;20071;-92
2022/05/14 06:23:22;;;;;;;12.57;8.57;;;24.60;99.90;;;;;;4752308;30;20047;-89
2022/05/14 06:25:52;;;;;;;11.23;8.98;;;24.20;99.90;;;;;;4752890;30;20071;-90
2022/05/14 06:28:18;;;;;;;16.80;8.60;;;24.60;99.90;;;;;;4738185;30;20089;-88
2022/05/14 06:30:45;;;;;;;11.70;8.25;;;24.60;99.90;;;;;;4738141;30;20085;-92
2022/05/14 06:33:13;;;;;;;10.05;7.70;;;24.10;99.90;;;;;;4738749;30;20043;-91
2022/05/14 06:35:40;;;;;;;9.77;8.20;;;24.00;99.90;;;;;;4738213;30;20050;-90
2022/05/14 06:38:07;;;;;;;15.38;9.27;;;24.60;99.90;;;;;;4752797;30;20036;-90
2022/05/14 06:40:37;;;;;;;9.93;8.15;;;24.70;99.90;;;;;;4768292;30;20063;-90
2022/05/14 06:43:05;;;;;;;12.45;8.30;;;24.10;99.90;;;;;;4770273;30;20170;-89
2022/05/14 06:45:32;;;;;;;14.00;8.30;;;24.50;99.90;;;;;;4755491;30;20112;-87
2022/05/14 06:47:59;;;;;;;10.95;8.10;;;25.10;99.90;;;;;;4770268;30;20368;-89
2022/05/14 06:50:28;;;;;;;9.50;8.50;;;25.10;99.90;;;;;;4755500;30;20039;-90
2022/05/14 06:53:01;;;;;;;11.55;8.25;;;24.90;99.90;;;;;;4770297;30;20039;-87
2022/05/14 06:55:34;;;;;;;11.57;7.72;;;24.80;99.90;;;;;;4755467;30;20047;-88
2022/05/14 06:58:05;;;;;;;9.13;8.37;;;25.20;99.90;;;;;;4755420;30;20453;-89
2022/05/14 07:00:32;;;;;;;10.30;8.23;;;25.20;99.90;;;;;;4768773;30;20525;-89
2022/05/14 07:08:30;;;;;;;16.92;8.43;;;25.40;99.90;;;;;;4755779;30;20104;-88
2022/05/14 07:10:58;;;;;;;12.90;8.88;;;25.10;99.90;;;;;;4756059;30;20503;-87
2022/05/14 07:13:24;;;;;;;11.40;8.27;;;25.30;99.90;;;;;;4756730;30;20039;-86
2022/05/14 07:15:51;;;;;;;13.27;8.85;;;25.00;99.90;;;;;;4759021;30;20039;-89
2022/05/14 07:18:18;;;;;;;12.52;7.93;;;24.90;99.90;;;;;;4758726;30;20461;-85
2022/05/14 07:20:48;;;;;;;13.93;8.43;;;25.10;99.90;;;;;;4743840;30;20035;-84
2022/05/14 07:23:14;;;;;;;11.30;8.30;;;25.10;99.90;;;;;;4774790;30;20035;-86
2022/05/14 07:25:42;;;;;;;12.75;7.68;;;25.20;99.90;;;;;;4758585;30;20050;-84
2022/05/14 07:28:12;;;;;;;9.73;7.95;;;25.00;99.90;;;;;;4759044;30;20482;-85
2022/05/14 07:30:39;;;;;;;8.88;7.97;;;25.90;99.90;;;;;;4758883;30;20044;-85
2022/05/14 07:33:06;;;;;;;8.52;7.45;;;25.50;99.90;;;;;;4758910;30;20035;-86
2022/05/14 07:35:34;;;;;;;10.00;8.20;;;25.80;99.90;;;;;;4758250;30;20417;-86
2022/05/14 07:38:03;;;;;;;11.10;7.85;;;25.90;99.90;;;;;;4759135;30;20157;-85
2022/05/14 07:40:34;;;;;;;14.77;9.27;;;25.90;99.90;;;;;;4758452;30;20115;-85
2022/05/14 07:43:09;;;;;;;10.80;8.25;;;26.00;99.90;;;;;;4757930;30;20105;-84
2022/05/14 07:45:44;;;;;;;11.60;7.97;;;26.50;99.90;;;;;;4758000;30;20506;-89
2022/05/14 07:48:20;;;;;;;9.48;7.90;;;25.40;99.90;;;;;;4758196;30;20040;-88
2022/05/14 07:50:51;;;;;;;9.02;7.68;;;25.50;99.90;;;;;;4758338;30;20035;-89
2022/05/14 07:53:19;;;;;;;12.82;7.40;;;25.70;99.90;;;;;;4758247;30;20177;-89
2022/05/14 07:55:47;;;;;;;8.57;7.65;;;25.70;99.90;;;;;;4758191;30;20040;-89
2022/05/14 07:58:14;;;;;;;11.13;7.70;;;25.30;99.90;;;;;;4760868;30;20039;-90
2022/05/14 08:00:44;;;;;;;9.80;8.85;;;26.20;99.90;;;;;;4763030;30;20040;-90
2022/05/14 08:03:10;;;;;;;9.13;8.18;;;26.10;99.90;;;;;;4762022;30;20039;-89
2022/05/14 08:05:40;;;;;;;12.50;8.00;;;26.10;99.90;;;;;;4761012;30;20043;-90
2022/05/14 08:08:13;;;;;;;11.05;8.02;;;25.70;99.90;;;;;;4760741;30;20042;-88
2022/05/14 08:10:40;;;;;;;9.10;8.20;;;26.00;99.90;;;;;;4762660;30;20035;-91
2022/05/14 08:13:06;;;;;;;8.80;7.97;;;25.70;99.90;;;;;;4760015;30;20057;-89
2022/05/14 08:15:33;;;;;;;10.45;7.78;;;25.60;99.90;;;;;;4758176;30;20048;-88
2022/05/14 08:17:59;;;;;;;9.65;8.52;;;25.90;99.90;;;;;;4758089;30;20558;-90
2022/05/14 08:20:26;;;;;;;9.40;8.50;;;25.90;99.90;;;;;;4757809;30;20113;-88
2022/05/14 08:25:37;;;;;;;11.75;9.02;;;25.40;99.90;;;;;;4756894;30;20547;-91
2022/05/14 08:28:07;;;;;;;8.95;8.20;;;26.30;99.90;;;;;;4757900;30;20058;-91
2022/05/14 08:30:46;;;;;;;12.30;8.90;;;26.20;99.90;;;;;;4742998;30;20139;-90
2022/05/14 08:33:13;;;;;;;9.57;8.40;;;26.20;99.90;;;;;;4757708;30;20039;-90
2022/05/14 08:35:40;;;;;;;10.13;9.18;;;26.70;99.90;;;;;;4757578;30;20043;-89
2022/05/14 08:38:12;;;;;;;9.70;9.00;;;27.50;99.90;;;;;;4757915;30;20490;-89
2022/05/14 08:40:42;;;;;;;10.20;9.15;;;26.60;99.90;;;;;;4757227;30;20056;-88
2022/05/14 08:43:36;;;;;;;9.23;8.32;;;26.00;99.90;;;;;;4742526;30;20108;-88
2022/05/14 08:46:06;;;;;;;11.32;8.95;;;25.90;99.90;;;;;;4757320;30;20032;-88
2022/05/14 08:48:36;;;;;;;10.32;9.05;;;26.50;99.90;;;;;;4757232;30;20055;-90
2022/05/14 08:51:16;;;;;;;9.48;8.55;;;26.30;99.90;;;;;;4757780;30;20452;-90
2022/05/14 08:53:46;;;;;;;9.38;8.48;;;25.80;99.90;;;;;;4757497;30;20406;-88
2022/05/14 08:56:49;;;;;;;9.45;8.52;;;25.90;99.90;;;;;;4757539;30;20055;-89
2022/05/14 08:59:42;;;;;;;8.80;8.10;;;26.40;99.90;;;;;;4769642;30;20101;-90
2022/05/14 09:02:25;;;;;;;9.75;8.75;;;26.20;99.90;;;;;;4752602;30;20052;-91
2022/05/14 09:05:07;;;;;;;12.80;8.80;;;26.20;99.90;;;;;;4757437;30;20035;-90
2022/05/14 09:07:36;;;;;;;8.95;8.05;;;25.80;99.90;;;;;;4757493;30;20067;-90
2022/05/14 09:10:08;;;;;;;9.95;9.02;;;26.80;99.90;;;;;;4757064;30;20063;-91
2022/05/14 09:12:57;;;;;;;10.10;9.30;;;27.50;99.90;;;;;;4757743;30;20056;-90
2022/05/14 09:15:29;;;;;;;10.55;9.40;;;27.00;99.90;;;;;;4757082;30;20498;-90
2022/05/14 09:18:07;;;;;;;15.20;9.55;;;27.80;99.90;;;;;;4743738;30;20572;-90
2022/05/14 09:21:05;;;;;;;13.52;9.80;;;27.40;99.90;;;;;;4758150;30;20384;-91
2022/05/14 09:23:49;;;;;;;10.80;9.30;;;26.30;99.90;;;;;;4757823;30;20067;-91
2022/05/14 09:26:37;;;;;;;9.85;8.98;;;26.70;99.90;;;;;;4756981;30;20040;-90
2022/05/14 09:29:32;;;;;;;14.88;10.52;;;26.40;99.90;;;;;;4742658;30;20054;-91
2022/05/14 09:32:06;;;;;;;;;;;27.00;99.90;;;;;;4757186;30;20108;-91
2022/05/14 09:34:35;;;;;;;9.60;8.85;;;26.60;99.90;;;;;;4742016;30;20025;-90
2022/05/14 09:37:09;;;;;;;10.73;9.38;;;27.20;99.90;;;;;;4755566;30;20118;-90
2022/05/14 09:39:38;;;;;;;10.95;9.80;;;26.40;99.90;;;;;;4756383;30;20060;-90
2022/05/14 09:42:29;;;;;;;14.20;9.07;;;26.50;99.90;;;;;;4741736;30;20028;-90
2022/05/14 09:44:57;;;;;;;9.98;9.02;;;26.60;99.90;;;;;;4756391;30;20036;-90
2022/05/14 09:47:30;;;;;;;11.98;8.90;;;26.60;99.90;;;;;;4758091;30;20036;-89
2022/05/14 09:50:06;;;;;;;10.07;8.98;;;26.70;99.90;;;;;;4757086;30;20032;-89
2022/05/14 09:52:37;;;;;;;13.68;9.40;;;26.40;99.90;;;;;;4757369;30;20082;-89
2022/05/14 09:55:10;;;;;;;9.82;8.95;;;26.80;99.90;;;;;;4757193;30;20094;-90
2022/05/14 09:58:03;;;;;;;9.90;9.10;;;26.40;99.90;;;;;;4757039;30;20097;-91
2022/05/14 10:00:57;;;;;;;13.95;9.15;;;26.50;99.90;;;;;;4757602;30;20047;-90
2022/05/14 10:03:55;;;;;;;10.80;9.07;;;26.50;99.90;;;;;;4756172;30;20031;-89
2022/05/14 10:06:55;;;;;;;26.13;9.57;;;26.70;99.90;;;;;;4756150;30;20118;-89
2022/05/14 10:09:28;;;;;;;12.43;8.95;;;26.80;99.90;;;;;;4741633;30;20379;-90
2022/05/14 10:12:15;;;;;;;12.45;9.23;;;26.70;99.90;;;;;;4756042;30;20394;-90
2022/05/14 10:15:05;;;;;;;11.55;9.20;;;27.20;99.90;;;;;;4742301;30;20043;-90
2022/05/14 10:17:52;;;;;;;10.60;9.27;;;27.50;99.90;;;;;;4756454;30;20055;-88
2022/05/14 10:20:43;;;;;;;10.70;9.70;;;28.00;99.90;;;;;;4756582;30;20066;-87
2022/05/14 10:26:44;;;;;;;10.98;9.88;;;28.10;99.90;;;;;;4755735;30;20043;-87
2022/05/14 10:29:54;;;;;;;13.07;9.63;;;27.90;99.90;;;;;;4741016;30;20126;-86
2022/05/14 10:32:31;;;;;;;11.27;10.10;;;27.30;99.90;;;;;;4755554;30;20031;-86
2022/05/14 10:35:12;;;;;;;12.15;10.10;;;27.70;99.90;;;;;;4756844;30;20047;-86
2022/05/14 10:38:07;;;;;;;10.43;9.30;;;27.20;99.90;;;;;;4756749;30;20119;-86
2022/05/14 10:40:43;;;;;;;10.55;9.18;;;27.40;99.90;;;;;;4756956;30;20094;-86
2022/05/14 10:43:38;;;;;;;10.70;9.60;;;27.30;99.90;;;;;;4757564;30;20039;-85
2022/05/14 10:46:12;;;;;;;9.93;8.95;;;27.60;99.90;;;;;;4743140;30;20355;-86
2022/05/14 10:48:57;;;;;;;11.48;9.35;;;27.60;99.90;;;;;;4755709;30;20043;-86
2022/05/14 10:51:30;;;;;;;13.43;10.23;;;27.30;99.90;;;;;;4756557;30;20071;-84
2022/05/14 10:54:02;;;;;;;11.50;10.30;;;27.10;99.90;;;;;;4755161;30;20116;-86
2022/05/14 10:56:36;;;;;;;14.30;10.27;;;28.00;99.90;;;;;;4755004;30;20135;-85
2022/05/14 10:59:14;;;;;;;10.40;9.50;;;27.60;99.90;;;;;;4755226;30;20040;-84
2022/05/14 11:02:02;;;;;;;10.07;8.50;;;27.10;99.90;;;;;;4756954;30;20039;-85
2022/05/14 11:04:40;;;;;;;10.10;9.20;;;27.40;99.90;;;;;;4756147;30;20039;-85
2022/05/14 11:07:16;;;;;;;10.18;9.23;;;27.40;99.90;;;;;;4754946;30;20181;-84
2022/05/14 11:09:46;;;;;;;10.88;9.40;;;27.90;99.90;;;;;;4769986;30;20386;-84
2022/05/14 11:12:19;;;;;;;10.45;9.55;;;27.80;99.90;;;;;;4755252;30;20079;-86
2022/05/14 11:14:47;;;;;;;12.38;10.50;;;28.00;99.90;;;;;;4747151;30;20047;-85
2022/05/14 11:17:18;;;;;;;10.90;9.90;;;28.30;99.90;;;;;;4764877;30;20482;-85
